Time;durP1;ratioP1;P1;durP2;ratioP2;P2;SDS_P1;SDS_P2;PMS_P1;PMS_P2;Temp;Humidity;BMP_temperature;BMP_pressure;BME280_temperature;BME280_humidity;BME280_pressure;Samples;Min_cycle;Max_cycle;Signal;HPM_P1;HPM_P2
2023/09/28 00:01:18;;;;;;;13.00;8.05;;;;;;;-141.50;100.00;63355.56;5026781;28;21036;-72
2023/09/28 00:03:45;;;;;;;16.27;8.70;;;;;;;-141.50;100.00;63355.56;5033728;28;20432;-72
2023/09/28 00:06:12;;;;;;;13.63;7.75;;;;;;;-141.50;100.00;63355.56;5026950;28;20385;-72
2023/09/28 00:08:39;;;;;;;15.23;8.65;;;;;;;-141.50;100.00;63355.56;5025649;28;20099;-73
2023/09/28 00:11:06;;;;;;;18.17;8.77;;;;;;;-141.50;100.00;63355.56;5026449;28;20072;-72
2023/09/28 00:13:32;;;;;;;14.45;9.05;;;;;;;-141.50;100.00;63355.56;5018006;28;20041;-72
2023/09/28 00:15:59;;;;;;;16.63;8.88;;;;;;;-141.50;100.00;63355.56;5025167;28;20511;-72
2023/09/28 00:18:26;;;;;;;15.73;8.68;;;;;;;-141.50;100.00;63355.56;5025593;28;20060;-72
2023/09/28 00:20:53;;;;;;;14.23;8.63;;;;;;;-141.50;100.00;63355.56;5026303;28;20054;-72
2023/09/28 00:23:19;;;;;;;12.95;8.10;;;;;;;-141.50;100.00;63355.56;5026006;28;20057;-72
2023/09/28 00:25:49;;;;;;;15.15;8.38;;;;;;;-141.50;100.00;63355.56;5025304;28;20040;-72
2023/09/28 00:28:16;;;;;;;16.48;8.48;;;;;;;-141.50;100.00;63355.56;5025272;28;20069;-72
2023/09/28 00:30:44;;;;;;;14.77;8.48;;;;;;;-141.50;100.00;63355.56;5025052;28;20046;-72
2023/09/28 00:33:11;;;;;;;13.15;8.05;;;;;;;-141.50;100.00;63355.56;5023816;28;20049;-72
2023/09/28 00:35:38;;;;;;;16.23;8.88;;;;;;;-141.50;100.00;63355.56;5025175;28;20045;-73
2023/09/28 00:38:05;;;;;;;17.65;9.20;;;;;;;-141.50;100.00;63355.56;5024604;28;20056;-71
2023/09/28 00:40:32;;;;;;;15.10;8.88;;;;;;;-141.50;100.00;63355.56;5024489;28;20053;-73
2023/09/28 00:43:01;;;;;;;14.90;8.13;;;;;;;-141.50;100.00;63355.56;5026401;28;20045;-73
2023/09/28 00:45:28;;;;;;;14.90;8.93;;;;;;;-141.50;100.00;63355.56;5025330;28;20050;-73
2023/09/28 00:48:02;;;;;;;14.98;8.82;;;;;;;-141.50;100.00;63355.56;5024433;28;20168;-72
2023/09/28 00:50:33;;;;;;;15.63;8.15;;;;;;;-141.50;100.00;63355.56;5025279;28;20046;-72
2023/09/28 00:53:04;;;;;;;12.50;7.80;;;;;;;-141.50;100.00;63355.56;5008354;28;20046;-72
2023/09/28 00:55:32;;;;;;;15.45;8.80;;;;;;;-141.50;100.00;63355.56;5024120;28;20069;-72
2023/09/28 00:58:02;;;;;;;15.82;8.15;;;;;;;-141.50;100.00;63355.56;5024185;28;20247;-72
2023/09/28 01:00:31;;;;;;;16.58;8.07;;;;;;;-141.50;100.00;63355.56;5023918;28;20101;-73
2023/09/28 01:03:02;;;;;;;16.75;8.48;;;;;;;-141.50;100.00;63355.56;5024353;28;20041;-73
2023/09/28 01:05:33;;;;;;;13.27;8.00;;;;;;;-141.50;100.00;63355.56;5024113;28;20037;-73
2023/09/28 01:08:12;;;;;;;16.73;8.55;;;;;;;-141.50;100.00;63355.56;5027156;28;20045;-73
2023/09/28 01:10:40;;;;;;;14.48;7.82;;;;;;;-141.50;100.00;63355.56;5027649;28;20057;-73
2023/09/28 01:13:20;;;;;;;13.43;7.40;;;;;;;-141.50;100.00;63355.56;5024060;28;20219;-72
2023/09/28 01:15:52;;;;;;;12.65;7.45;;;;;;;-141.50;100.00;63355.56;5016941;28;20050;-72
2023/09/28 01:18:20;;;;;;;13.57;8.23;;;;;;;-141.50;100.00;63355.56;5025057;28;20033;-72
2023/09/28 01:20:51;;;;;;;15.25;7.82;;;;;;;-141.50;100.00;63355.56;5022895;28;20095;-72
2023/09/28 01:23:19;;;;;;;16.55;8.23;;;;;;;-141.50;100.00;63355.56;5023325;28;20107;-73
2023/09/28 01:25:47;;;;;;;13.18;7.75;;;;;;;-141.50;100.00;63355.56;5027504;28;20110;-72
2023/09/28 01:28:18;;;;;;;14.05;7.88;;;;;;;-141.50;100.00;63355.56;5027597;28;20502;-72
2023/09/28 01:30:46;;;;;;;11.68;7.03;;;;;;;-141.50;100.00;63355.56;5037262;28;20129;-72
2023/09/28 01:33:13;;;;;;;15.80;8.13;;;;;;;-141.50;100.00;63355.56;5028650;28;20091;-72
2023/09/28 01:35:40;;;;;;;14.77;7.93;;;;;;;-141.50;100.00;63355.56;5026874;28;20438;-72
2023/09/28 01:38:10;;;;;;;12.90;6.93;;;;;;;-141.50;100.00;63355.56;5028809;28;20041;-72
2023/09/28 01:40:37;;;;;;;12.50;7.47;;;;;;;-141.50;100.00;63355.56;5027087;28;20052;-72
2023/09/28 01:43:05;;;;;;;13.93;8.07;;;;;;;-141.50;100.00;63355.56;5027384;28;20046;-72
2023/09/28 01:45:31;;;;;;;14.68;7.90;;;;;;;-141.50;100.00;63355.56;5028405;28;20518;-73
2023/09/28 01:47:58;;;;;;;13.43;7.50;;;;;;;-141.50;100.00;63355.56;5027015;28;20049;-72
2023/09/28 01:50:25;;;;;;;12.60;7.72;;;;;;;-141.50;100.00;63355.56;5026396;28;20467;-72
2023/09/28 01:52:52;;;;;;;11.57;6.82;;;;;;;-141.50;100.00;63355.56;5027214;28;20115;-72
2023/09/28 01:55:19;;;;;;;15.07;7.63;;;;;;;-141.50;100.00;63355.56;5027957;28;20404;-72
2023/09/28 01:57:46;;;;;;;12.80;6.93;;;;;;;-141.50;100.00;63355.56;5027165;28;20095;-72
2023/09/28 02:00:20;;;;;;;17.92;7.65;;;;;;;-141.50;100.00;63355.56;5026466;28;20468;-72
2023/09/28 02:02:47;;;;;;;14.13;7.85;;;;;;;-141.50;100.00;63355.56;5026989;28;20080;-73
2023/09/28 02:05:19;;;;;;;13.98;7.10;;;;;;;-141.50;100.00;63355.56;5010145;28;20237;-73
2023/09/28 02:07:46;;;;;;;12.95;7.22;;;;;;;-141.50;100.00;63355.56;5020025;28;20049;-73
2023/09/28 02:10:14;;;;;;;13.63;7.65;;;;;;;-141.50;100.00;63355.56;5026636;28;20057;-72
2023/09/28 02:12:43;;;;;;;16.20;6.75;;;;;;;-141.50;100.00;63355.56;5026057;28;20044;-73
2023/09/28 02:15:15;;;;;;;10.82;6.60;;;;;;;-141.50;100.00;63355.56;5027992;28;20140;-72
2023/09/28 02:17:46;;;;;;;11.95;7.10;;;;;;;-141.50;100.00;63355.56;5007367;28;20037;-73
2023/09/28 02:20:19;;;;;;;13.40;6.85;;;;;;;-141.50;100.00;63355.56;5025864;28;20061;-72
2023/09/28 02:22:46;;;;;;;10.90;7.07;;;;;;;-141.50;100.00;63355.56;5027403;28;20042;-73
2023/09/28 02:25:17;;;;;;;13.75;6.70;;;;;;;-141.50;100.00;63355.56;5026331;28;20049;-71
2023/09/28 02:27:48;;;;;;;12.60;7.45;;;;;;;-141.50;100.00;63355.56;5026024;28;20049;-73
2023/09/28 02:30:19;;;;;;;11.30;6.80;;;;;;;-141.50;100.00;63355.56;5027264;28;20056;-72
2023/09/28 02:32:47;;;;;;;14.65;6.82;;;;;;;-141.50;100.00;63355.56;5027913;28;20069;-72
2023/09/28 02:35:16;;;;;;;17.15;7.50;;;;;;;-141.50;100.00;63355.56;5030283;28;20555;-72
2023/09/28 02:37:46;;;;;;;12.70;7.22;;;;;;;-141.50;100.00;63355.56;5030310;28;20112;-72
2023/09/28 02:40:14;;;;;;;15.30;6.60;;;;;;;-141.50;100.00;63355.56;5032127;28;20061;-72
2023/09/28 02:42:42;;;;;;;11.90;6.85;;;;;;;-141.50;100.00;63355.56;5031563;28;20048;-72
2023/09/28 02:45:13;;;;;;;13.25;7.00;;;;;;;-141.50;100.00;63355.56;5028356;28;20121;-72
2023/09/28 02:47:42;;;;;;;11.85;6.80;;;;;;;-141.50;100.00;63355.56;5029319;28;20334;-72
2023/09/28 02:50:10;;;;;;;11.52;6.90;;;;;;;-141.50;100.00;63355.56;5029139;28;20053;-72
2023/09/28 02:52:39;;;;;;;13.32;7.30;;;;;;;-141.50;100.00;63355.56;5026123;28;20041;-71
2023/09/28 02:55:07;;;;;;;11.65;7.07;;;;;;;-141.50;100.00;63355.56;5021901;28;20053;-72
2023/09/28 02:57:35;;;;;;;11.73;7.00;;;;;;;-141.50;100.00;63355.56;5027492;28;20095;-74
2023/09/28 03:03:09;;;;;;;10.57;6.05;;;;;;;-141.50;100.00;63355.56;4982367;28;20558;-72
2023/09/28 03:05:38;;;;;;;13.00;6.78;;;;;;;-141.50;100.00;63355.56;5038118;28;20048;-73
2023/09/28 03:08:10;;;;;;;11.18;6.18;;;;;;;-141.50;100.00;63355.56;5026350;28;20048;-72
2023/09/28 03:10:41;;;;;;;13.82;6.80;;;;;;;-141.50;100.00;63355.56;5026982;28;20045;-72
2023/09/28 03:13:08;;;;;;;12.07;6.85;;;;;;;-141.50;100.00;63355.56;5040933;28;20060;-72
2023/09/28 03:15:35;;;;;;;11.57;5.97;;;;;;;-141.50;100.00;63355.56;5025880;28;20052;-73
2023/09/28 03:18:02;;;;;;;13.65;6.43;;;;;;;-141.50;100.00;63355.56;5029274;28;20076;-73
2023/09/28 03:20:30;;;;;;;13.10;7.13;;;;;;;-141.50;100.00;63355.56;5028169;28;20056;-72
2023/09/28 03:22:57;;;;;;;16.05;6.72;;;;;;;-141.50;100.00;63355.56;5027287;28;20136;-72
2023/09/28 03:25:25;;;;;;;11.68;6.70;;;;;;;-141.50;100.00;63355.56;5025327;28;20037;-73
2023/09/28 03:27:53;;;;;;;13.65;6.47;;;;;;;-141.50;100.00;63355.56;5025845;28;20049;-72
2023/09/28 03:30:25;;;;;;;11.05;6.03;;;;;;;-141.50;100.00;63355.56;5026822;28;20065;-72
2023/09/28 03:32:53;;;;;;;11.45;6.43;;;;;;;-141.50;100.00;63355.56;5020599;28;20088;-72
2023/09/28 03:35:20;;;;;;;13.65;7.00;;;;;;;-141.50;100.00;63355.56;5026641;28;20042;-72
2023/09/28 03:37:47;;;;;;;14.07;6.90;;;;;;;-141.50;100.00;63355.56;5020063;28;20048;-72
2023/09/28 03:40:16;;;;;;;10.77;6.13;;;;;;;-141.50;100.00;63355.56;5026524;28;20053;-73
2023/09/28 03:42:46;;;;;;;13.02;6.63;;;;;;;-141.50;100.00;63355.56;5024887;28;20037;-72
2023/09/28 03:45:14;;;;;;;12.20;6.57;;;;;;;-141.50;100.00;63355.56;5024854;28;20124;-71
2023/09/28 03:47:43;;;;;;;12.00;6.60;;;;;;;-141.50;100.00;63355.56;5020389;28;20128;-72
2023/09/28 03:50:12;;;;;;;14.10;7.25;;;;;;;-141.50;100.00;63355.56;5024569;28;20053;-72
2023/09/28 03:52:40;;;;;;;15.48;6.63;;;;;;;-141.50;100.00;63355.56;5024523;28;20045;-72
2023/09/28 03:55:13;;;;;;;12.75;6.93;;;;;;;-141.50;100.00;63355.56;5008257;28;20058;-72
2023/09/28 03:57:44;;;;;;;12.27;6.72;;;;;;;-141.50;100.00;63355.56;5023647;28;20048;-72
2023/09/28 04:00:14;;;;;;;13.55;7.13;;;;;;;-141.50;100.00;63355.56;5026066;28;20053;-72
2023/09/28 04:02:42;;;;;;;10.85;6.60;;;;;;;-141.50;100.00;63355.56;5024992;28;20219;-71
2023/09/28 04:05:09;;;;;;;11.98;7.13;;;;;;;-141.50;100.00;63355.56;5024453;28;20051;-72
2023/09/28 04:07:37;;;;;;;12.48;6.60;;;;;;;-141.50;100.00;63355.56;5026093;28;20045;-72
2023/09/28 04:10:04;;;;;;;15.52;7.13;;;;;;;-141.50;100.00;63355.56;5023856;28;20360;-73
2023/09/28 04:12:31;;;;;;;11.82;6.65;;;;;;;-141.50;100.00;63355.56;5025036;28;20068;-73
2023/09/28 04:14:58;;;;;;;11.68;7.10;;;;;;;-141.50;100.00;63355.56;5014459;28;20045;-72
2023/09/28 04:17:25;;;;;;;15.73;8.20;;;;;;;-141.50;100.00;63355.56;5038696;28;20092;-72
2023/09/28 04:19:54;;;;;;;17.17;7.80;;;;;;;-141.50;100.00;63355.56;5020742;28;20044;-73
2023/09/28 04:22:24;;;;;;;12.32;6.90;;;;;;;-141.50;100.00;63355.56;5021768;28;20053;-73
2023/09/28 04:24:51;;;;;;;12.85;7.47;;;;;;;-141.50;100.00;63355.56;5020160;28;20037;-73
2023/09/28 04:27:18;;;;;;;14.27;7.60;;;;;;;-141.50;100.00;63355.56;5025253;28;20045;-73
2023/09/28 04:29:45;;;;;;;13.38;7.13;;;;;;;-141.50;100.00;63355.56;5021146;28;20049;-72
2023/09/28 04:32:11;;;;;;;14.05;7.82;;;;;;;-141.50;100.00;63355.56;5016976;28;20045;-72
2023/09/28 04:34:39;;;;;;;11.20;6.75;;;;;;;-141.50;100.00;63355.56;5027290;28;20041;-72
2023/09/28 04:37:06;;;;;;;13.70;6.82;;;;;;;-141.50;100.00;63355.56;5021528;28;20037;-72
2023/09/28 04:39:34;;;;;;;14.85;7.32;;;;;;;-141.50;100.00;63355.56;5021876;28;20049;-72
2023/09/28 04:42:00;;;;;;;13.40;7.00;;;;;;;-141.50;100.00;63355.56;5025438;28;20088;-72
2023/09/28 04:44:27;;;;;;;14.07;7.72;;;;;;;-141.50;100.00;63355.56;5022918;28;20049;-71
2023/09/28 04:46:54;;;;;;;11.85;6.85;;;;;;;-141.50;100.00;63355.56;5025641;28;20037;-71
2023/09/28 04:49:21;;;;;;;12.23;6.70;;;;;;;-141.50;100.00;63355.56;5025325;28;20451;-72
2023/09/28 04:51:48;;;;;;;12.82;6.85;;;;;;;-141.50;100.00;63355.56;5008232;28;20052;-71
2023/09/28 04:54:15;;;;;;;11.18;6.25;;;;;;;-141.50;100.00;63355.56;5022186;28;20045;-72
2023/09/28 04:56:43;;;;;;;12.57;6.75;;;;;;;-141.50;100.00;63355.56;5022603;28;20092;-72
2023/09/28 04:59:10;;;;;;;12.18;6.35;;;;;;;-141.50;100.00;63355.56;5025885;28;20053;-73
2023/09/28 05:01:37;;;;;;;12.63;7.43;;;;;;;-141.50;100.00;63355.56;5028158;28;20087;-73
2023/09/28 05:04:04;;;;;;;14.60;8.35;;;;;;;-141.50;100.00;63355.56;5029536;28;20596;-73
2023/09/28 05:06:31;;;;;;;15.20;8.35;;;;;;;-141.50;100.00;63355.56;5029579;28;20565;-74
2023/09/28 05:08:57;;;;;;;17.75;8.13;;;;;;;-141.50;100.00;63355.56;5034604;28;20053;-74
2023/09/28 05:11:24;;;;;;;16.80;9.25;;;;;;;-141.50;100.00;63355.56;5028113;28;20475;-73
2023/09/28 05:13:51;;;;;;;13.45;7.53;;;;;;;-141.50;100.00;63355.56;5027817;28;20054;-73
2023/09/28 05:16:19;;;;;;;14.43;7.53;;;;;;;-141.50;100.00;63355.56;5031554;28;20103;-74
2023/09/28 05:18:46;;;;;;;13.13;7.47;;;;;;;-141.50;100.00;63355.56;5027867;28;20470;-74
2023/09/28 05:21:13;;;;;;;14.55;7.53;;;;;;;-141.50;100.00;63355.56;5027677;28;20046;-73
2023/09/28 05:23:42;;;;;;;16.52;7.53;;;;;;;-141.50;100.00;63355.56;5031211;28;20068;-73
2023/09/28 05:26:09;;;;;;;14.07;7.45;;;;;;;-141.50;100.00;63355.56;5047243;28;20041;-73
2023/09/28 05:28:35;;;;;;;11.95;7.35;;;;;;;-141.50;100.00;63355.56;5029669;28;20048;-73
2023/09/28 05:31:03;;;;;;;14.18;7.18;;;;;;;-141.50;100.00;63355.56;5028006;28;20045;-74
2023/09/28 05:33:31;;;;;;;13.05;7.43;;;;;;;-141.50;100.00;63355.56;5028983;28;20095;-74
2023/09/28 05:35:58;;;;;;;15.38;7.43;;;;;;;-141.50;100.00;63355.56;5028655;28;20120;-74
2023/09/28 05:38:25;;;;;;;15.88;7.40;;;;;;;-141.50;100.00;63355.56;5029061;28;20517;-74
2023/09/28 05:40:54;;;;;;;15.38;7.03;;;;;;;-141.50;100.00;63355.56;5029067;28;20042;-74
2023/09/28 05:43:21;;;;;;;12.02;7.07;;;;;;;-141.50;100.00;63355.56;5028979;28;20049;-74
2023/09/28 05:45:48;;;;;;;15.00;7.68;;;;;;;-141.50;100.00;63355.56;5027116;28;20049;-74
2023/09/28 05:48:14;;;;;;;13.88;7.18;;;;;;;-141.50;100.00;63355.56;5028996;28;20625;-73
2023/09/28 05:50:41;;;;;;;12.63;7.28;;;;;;;-141.50;100.00;63355.56;5028120;28;20112;-73
2023/09/28 05:53:08;;;;;;;15.35;7.25;;;;;;;-141.50;100.00;63355.56;5027212;28;20049;-74
2023/09/28 05:55:36;;;;;;;13.07;6.97;;;;;;;-141.50;100.00;63355.56;5028549;28;20044;-74
2023/09/28 05:58:04;;;;;;;13.50;7.43;;;;;;;-141.50;100.00;63355.56;5027334;28;20041;-73
2023/09/28 06:00:31;;;;;;;16.27;7.13;;;;;;;-141.50;100.00;63355.56;5028286;28;20049;-73
2023/09/28 06:02:58;;;;;;;12.73;7.28;;;;;;;-141.50;100.00;63355.56;5028946;28;20062;-73
2023/09/28 06:05:25;;;;;;;13.88;7.55;;;;;;;-141.50;100.00;63355.56;5028301;28;20041;-73
2023/09/28 06:07:53;;;;;;;13.35;7.60;;;;;;;-141.50;100.00;63355.56;5026636;28;20258;-73
2023/09/28 06:10:21;;;;;;;12.40;7.35;;;;;;;-141.50;100.00;63355.56;5026319;28;20056;-73
2023/09/28 06:12:48;;;;;;;12.25;7.15;;;;;;;-141.50;100.00;63355.56;5028133;28;20041;-74
2023/09/28 06:15:14;;;;;;;13.40;7.35;;;;;;;-141.50;100.00;63355.56;5028064;28;20534;-73
2023/09/28 06:17:42;;;;;;;16.30;8.10;;;;;;;-141.50;100.00;63355.56;5010589;28;20507;-73
2023/09/28 06:20:08;;;;;;;14.50;7.72;;;;;;;-141.50;100.00;63355.56;5027744;28;20472;-73
2023/09/28 06:22:35;;;;;;;14.80;8.57;;;;;;;-141.50;100.00;63355.56;5026502;28;20107;-73
2023/09/28 06:25:03;;;;;;;17.88;9.23;;;;;;;-141.50;100.00;63355.56;5027986;28;20128;-74
2023/09/28 06:27:30;;;;;;;15.45;9.00;;;;;;;-141.50;100.00;63355.56;5026632;28;20626;-73
2023/09/28 06:29:57;;;;;;;19.40;9.75;;;;;;;-141.50;100.00;63355.56;5026733;28;20045;-73
2023/09/28 06:32:25;;;;;;;16.10;8.82;;;;;;;-141.50;100.00;63355.56;5026592;28;20673;-73
2023/09/28 06:34:52;;;;;;;16.83;8.88;;;;;;;-141.50;100.00;63355.56;5028385;28;20096;-73
2023/09/28 06:37:19;;;;;;;20.30;10.38;;;;;;;-141.50;100.00;63355.56;5025762;28;20044;-73
2023/09/28 06:39:46;;;;;;;18.95;9.85;;;;;;;-141.50;100.00;63355.56;5025682;28;20064;-73
2023/09/28 06:42:13;;;;;;;19.45;10.20;;;;;;;-141.50;100.00;63355.56;5027361;28;20049;-73
2023/09/28 06:45:00;;;;;;;17.77;10.00;;;;;;;-141.50;100.00;63355.56;5021554;28;20571;-73
2023/09/28 06:47:26;;;;;;;18.98;10.30;;;;;;;-141.50;100.00;63355.56;5038067;28;20048;-73
2023/09/28 06:50:11;;;;;;;25.08;10.85;;;;;;;-141.50;100.00;63355.56;5032914;28;20550;-73
2023/09/28 06:52:38;;;;;;;25.45;11.65;;;;;;;-141.50;100.00;63355.56;5033584;28;20041;-73
2023/09/28 06:55:07;;;;;;;26.58;11.63;;;;;;;-141.50;100.00;63355.56;5033983;28;20392;-73
2023/09/28 06:57:34;;;;;;;18.92;10.73;;;;;;;-141.50;100.00;63355.56;5031657;28;20048;-73
2023/09/28 07:00:06;;;;;;;18.98;11.10;;;;;;;-141.50;100.00;63355.56;5028417;28;20507;-73
2023/09/28 07:02:34;;;;;;;21.52;10.73;;;;;;;-141.50;100.00;63355.56;5025731;28;20123;-73
2023/09/28 07:05:04;;;;;;;18.73;10.95;;;;;;;-141.50;100.00;63355.56;5026021;28;20172;-73
2023/09/28 07:07:31;;;;;;;20.13;10.90;;;;;;;-141.50;100.00;63355.56;5027133;28;20091;-73
2023/09/28 07:09:58;;;;;;;18.02;10.10;;;;;;;-141.50;100.00;63355.56;5026990;28;20711;-73
2023/09/28 07:12:25;;;;;;;20.23;10.43;;;;;;;-141.50;100.00;63355.56;5027121;28;20543;-73
2023/09/28 07:14:51;;;;;;;21.35;10.43;;;;;;;-141.50;100.00;63355.56;5026901;28;20111;-73
2023/09/28 07:17:19;;;;;;;16.05;9.73;;;;;;;-141.50;100.00;63355.56;5026728;28;20041;-73
2023/09/28 07:19:46;;;;;;;15.70;9.30;;;;;;;-141.50;100.00;63355.56;5025574;28;20499;-73
2023/09/28 07:22:15;;;;;;;16.50;9.05;;;;;;;-141.50;100.00;63355.56;5019510;28;20762;-73
2023/09/28 07:24:41;;;;;;;16.50;8.85;;;;;;;-141.50;100.00;63355.56;5025708;28;20619;-73
2023/09/28 07:27:08;;;;;;;18.00;8.60;;;;;;;-141.50;100.00;63355.56;5027248;28;20072;-73
2023/09/28 07:29:35;;;;;;;14.43;8.35;;;;;;;-141.50;100.00;63355.56;5041688;28;20413;-73
2023/09/28 07:32:02;;;;;;;16.55;8.60;;;;;;;-141.50;100.00;63355.56;5026689;28;20042;-73
2023/09/28 07:34:29;;;;;;;12.48;7.97;;;;;;;-141.50;100.00;63355.56;5026338;28;20045;-73
2023/09/28 07:36:56;;;;;;;14.43;8.13;;;;;;;-141.50;100.00;63355.56;5027495;28;20041;-73
2023/09/28 07:39:23;;;;;;;15.38;7.88;;;;;;;-141.50;100.00;63355.56;5028484;28;20442;-73
2023/09/28 07:41:51;;;;;;;14.85;8.05;;;;;;;-141.50;100.00;63355.56;5019871;28;20432;-74
2023/09/28 07:44:21;;;;;;;15.30;8.65;;;;;;;-141.50;100.00;63355.56;5025449;28;20046;-73
2023/09/28 07:46:48;;;;;;;13.20;7.43;;;;;;;-141.50;100.00;63355.56;5026475;28;20065;-73
2023/09/28 07:49:14;;;;;;;14.13;8.30;;;;;;;-141.50;100.00;63355.56;5025495;28;20535;-73
2023/09/28 07:51:41;;;;;;;12.07;7.25;;;;;;;-141.50;100.00;63355.56;5025011;28;20095;-73
2023/09/28 07:54:08;;;;;;;13.20;8.38;;;;;;;-141.50;100.00;63355.56;5024887;28;20041;-73
2023/09/28 07:56:34;;;;;;;12.57;7.07;;;;;;;-141.50;100.00;63355.56;5026023;28;20049;-73
2023/09/28 07:59:01;;;;;;;11.02;7.10;;;;;;;-141.50;100.00;63355.56;5025510;28;20052;-74
2023/09/28 08:01:28;;;;;;;15.18;7.75;;;;;;;-141.50;100.00;63355.56;5026441;28;20048;-73
2023/09/28 08:03:55;;;;;;;13.65;7.32;;;;;;;-141.50;100.00;63355.56;5026319;28;20038;-73
2023/09/28 08:06:22;;;;;;;9.48;6.60;;;;;;;-141.50;100.00;63355.56;5026140;28;20049;-74
2023/09/28 08:08:57;;;;;;;13.80;6.82;;;;;;;-141.50;100.00;63355.56;5020590;28;20049;-74
2023/09/28 08:11:24;;;;;;;10.05;6.45;;;;;;;-141.50;100.00;63355.56;5025418;28;20042;-73
2023/09/28 08:13:51;;;;;;;12.60;6.72;;;;;;;-141.50;100.00;63355.56;5034821;28;20128;-73
2023/09/28 08:16:18;;;;;;;10.93;6.70;;;;;;;-141.50;100.00;63355.56;5021938;28;20061;-73
2023/09/28 08:18:46;;;;;;;13.27;6.55;;;;;;;-141.50;100.00;63355.56;5025922;28;20136;-73
2023/09/28 08:21:13;;;;;;;10.80;6.07;;;;;;;-141.50;100.00;63355.56;5025786;28;20049;-73
2023/09/28 08:23:40;;;;;;;10.27;6.05;;;;;;;-141.50;100.00;63355.56;5024450;28;20115;-73
2023/09/28 08:26:19;;;;;;;10.18;6.03;;;;;;;-141.50;100.00;63355.56;5024812;28;20045;-73
2023/09/28 08:28:46;;;;;;;9.15;6.03;;;;;;;-141.50;100.00;63355.56;5026260;28;20038;-73
2023/09/28 08:31:13;;;;;;;11.25;6.30;;;;;;;-141.50;100.00;63355.56;5024717;28;20508;-73
2023/09/28 08:33:40;;;;;;;9.88;5.20;;;;;;;-141.50;100.00;63355.56;5023147;28;20531;-73
2023/09/28 08:36:08;;;;;;;6.25;4.65;;;;;;;-141.50;100.00;63355.56;5024561;28;20128;-73
2023/09/28 08:38:37;;;;;;;9.35;5.53;;;;;;;-141.50;100.00;63355.56;5025063;28;20628;-73
2023/09/28 08:41:08;;;;;;;7.50;4.90;;;;;;;-141.50;100.00;63355.56;5025998;28;20123;-74
2023/09/28 08:43:46;;;;;;;7.95;4.93;;;;;;;-141.50;100.00;63355.56;5041136;28;20552;-73
2023/09/28 08:46:14;;;;;;;8.25;4.97;;;;;;;-141.50;100.00;63355.56;5030915;28;20542;-73
2023/09/28 08:48:47;;;;;;;7.82;5.10;;;;;;;-141.50;100.00;63355.56;5025606;28;20045;-73
2023/09/28 08:51:15;;;;;;;8.77;5.30;;;;;;;-141.50;100.00;63355.56;5024414;28;20081;-73
2023/09/28 08:53:43;;;;;;;10.68;4.90;;;;;;;-141.50;100.00;63355.56;5024235;28;20092;-73
2023/09/28 08:56:10;;;;;;;9.85;5.22;;;;;;;-141.50;100.00;63355.56;5045269;28;20053;-72
2023/09/28 08:58:37;;;;;;;7.80;4.78;;;;;;;-141.50;100.00;63355.56;5025061;28;20044;-73
2023/09/28 09:01:06;;;;;;;7.00;4.57;;;;;;;-141.50;100.00;63355.56;5025275;28;20474;-73
2023/09/28 09:03:36;;;;;;;6.72;4.18;;;;;;;-141.50;100.00;63355.56;5024747;28;20679;-73
2023/09/28 09:06:05;;;;;;;8.07;4.72;;;;;;;-141.50;100.00;63355.56;5040914;28;20042;-73
2023/09/28 09:08:34;;;;;;;8.95;4.40;;;;;;;-141.50;100.00;63355.56;5025185;28;20093;-73
2023/09/28 09:11:01;;;;;;;7.13;4.32;;;;;;;-141.50;100.00;63355.56;5025348;28;20507;-73
2023/09/28 09:13:29;;;;;;;7.30;4.90;;;;;;;-141.50;100.00;63355.56;5025251;28;20076;-72
2023/09/28 09:15:56;;;;;;;8.10;3.92;;;;;;;-141.50;100.00;63355.56;5025486;28;20619;-73
2023/09/28 09:18:27;;;;;;;6.43;3.97;;;;;;;-141.50;100.00;63355.56;5025545;28;20049;-72
2023/09/28 09:20:58;;;;;;;5.00;3.60;;;;;;;-141.50;100.00;63355.56;5031224;28;20047;-72
2023/09/28 09:23:25;;;;;;;5.80;3.72;;;;;;;-141.50;100.00;63355.56;5025339;28;20049;-73
2023/09/28 09:25:55;;;;;;;6.60;4.00;;;;;;;-141.50;100.00;63355.56;5025693;28;20045;-73
2023/09/28 09:28:32;;;;;;;7.53;4.30;;;;;;;-141.50;100.00;63355.56;5025241;28;20052;-73
2023/09/28 09:31:00;;;;;;;10.25;4.30;;;;;;;-141.50;100.00;63355.56;5025115;28;20092;-73
2023/09/28 09:33:28;;;;;;;6.07;3.88;;;;;;;-141.50;100.00;63355.56;5024766;28;20041;-73
2023/09/28 09:35:58;;;;;;;6.32;4.25;;;;;;;-141.50;100.00;63355.56;5025358;28;20068;-73
2023/09/28 09:38:29;;;;;;;6.53;3.78;;;;;;;-141.50;100.00;63355.56;5024962;28;20477;-73
2023/09/28 09:41:00;;;;;;;9.90;3.78;;;;;;;-141.50;100.00;63355.56;5024664;28;20112;-73
2023/09/28 09:43:34;;;;;;;6.30;3.55;;;;;;;-141.50;100.00;63355.56;5026037;28;20041;-73
2023/09/28 09:46:06;;;;;;;5.20;3.47;;;;;;;-141.50;100.00;63355.56;5029091;28;20066;-73
2023/09/28 09:48:39;;;;;;;6.10;3.80;;;;;;;-141.50;100.00;63355.56;5028580;28;20519;-73
2023/09/28 09:51:10;;;;;;;7.57;3.10;;;;;;;-141.50;100.00;63355.56;5024015;28;20096;-72
2023/09/28 09:53:41;;;;;;;3.88;2.53;;;;;;;-141.50;100.00;63355.56;5027757;28;20052;-73
2023/09/28 09:56:10;;;;;;;3.75;2.60;;;;;;;-141.50;100.00;63355.56;5030209;28;20073;-73
2023/09/28 09:58:41;;;;;;;7.25;2.80;;;;;;;-141.50;100.00;63355.56;5030580;28;20099;-73
2023/09/28 10:01:14;;;;;;;3.72;2.25;;;;;;;-141.50;100.00;63355.56;5029490;28;20193;-73
2023/09/28 10:03:48;;;;;;;5.10;2.58;;;;;;;-141.50;100.00;63355.56;5028159;28;20776;-73
2023/09/28 10:06:16;;;;;;;4.25;2.60;;;;;;;-141.50;100.00;63355.56;5026975;28;20452;-74
2023/09/28 10:08:45;;;;;;;6.35;2.58;;;;;;;-141.50;100.00;63355.56;5027697;28;20045;-73
2023/09/28 10:11:13;;;;;;;5.63;1.90;;;;;;;-141.50;100.00;63355.56;5026477;28;21711;-73
2023/09/28 10:13:41;;;;;;;3.10;1.80;;;;;;;-141.50;100.00;63355.56;5026062;28;21604;-73
2023/09/28 10:16:13;;;;;;;3.80;1.98;;;;;;;-141.50;100.00;63355.56;5028337;28;20448;-73
2023/09/28 10:18:43;;;;;;;2.65;1.90;;;;;;;-141.50;100.00;63355.56;5027904;28;20050;-73
2023/09/28 10:21:11;;;;;;;3.58;1.95;;;;;;;-141.50;100.00;63355.56;5043364;28;20420;-73
2023/09/28 10:23:38;;;;;;;3.60;2.10;;;;;;;-141.50;100.00;63355.56;5027757;28;20042;-73
2023/09/28 10:26:11;;;;;;;3.33;1.60;;;;;;;-141.50;100.00;63355.56;5028381;28;20621;-73
2023/09/28 10:29:05;;;;;;;3.30;1.60;;;;;;;-141.50;100.00;63355.56;5028147;28;20418;-73
2023/09/28 10:31:36;;;;;;;3.42;1.70;;;;;;;-141.50;100.00;63355.56;5025073;28;20069;-73
2023/09/28 10:34:24;;;;;;;2.88;1.60;;;;;;;-141.50;100.00;63355.56;5028704;28;20052;-73
2023/09/28 10:37:18;;;;;;;4.32;1.70;;;;;;;-141.50;100.00;63355.56;5028164;28;20041;-71
2023/09/28 10:39:53;;;;;;;3.55;1.80;;;;;;;-141.50;100.00;63355.56;5027199;28;20987;-72
2023/09/28 10:42:22;;;;;;;2.95;1.67;;;;;;;-141.50;100.00;63355.56;5028511;28;20052;-72
2023/09/28 10:44:56;;;;;;;4.03;1.60;;;;;;;-141.50;100.00;63355.56;5032729;28;20037;-72
2023/09/28 10:47:24;;;;;;;3.15;1.80;;;;;;;-141.50;100.00;63355.56;5033740;28;20041;-72
2023/09/28 10:50:02;;;;;;;2.50;1.27;;;;;;;-141.50;100.00;63355.56;5032300;28;20054;-72
2023/09/28 10:52:29;;;;;;;2.20;1.52;;;;;;;-141.50;100.00;63355.56;5031780;28;20041;-71
2023/09/28 10:54:56;;;;;;;2.78;1.90;;;;;;;-141.50;100.00;63355.56;5023765;28;20057;-71
2023/09/28 10:57:32;;;;;;;6.70;1.92;;;;;;;-141.50;100.00;63355.56;5025884;28;20514;-72
2023/09/28 11:00:01;;;;;;;4.63;2.80;;;;;;;-141.50;100.00;63355.56;5027286;28;20060;-71
2023/09/28 11:02:28;;;;;;;2.40;1.50;;;;;;;-141.50;100.00;63355.56;5027205;28;20045;-71
2023/09/28 11:04:59;;;;;;;3.67;2.35;;;;;;;-141.50;100.00;63355.56;5026631;28;20033;-72
2023/09/28 11:07:26;;;;;;;4.22;2.30;;;;;;;-141.50;100.00;63355.56;5027591;28;20053;-71
2023/09/28 11:09:53;;;;;;;2.97;2.10;;;;;;;-141.50;100.00;63355.56;5025788;28;20052;-71
2023/09/28 11:12:20;;;;;;;1.90;1.35;;;;;;;-141.50;100.00;63355.56;5027072;28;20037;-72